Time;durP1;ratioP1;P1;durP2;ratioP2;P2;SDS_P1;SDS_P2;PMS_P1;PMS_P2;Temp;Humidity;BMP_temperature;BMP_pressure;BME280_temperature;BME280_humidity;BME280_pressure;Samples;Min_cycle;Max_cycle;Signal;HPM_P1;HPM_P2
2023/02/19 00:00:20;;;;;;;16.58;10.43;;;9.50;99.90;;;;;;4978741;28;20026;-49
2023/02/19 00:03:06;;;;;;;15.18;9.88;;;9.50;99.90;;;;;;4992374;28;20031;-55
2023/02/19 00:05:52;;;;;;;14.43;10.10;;;9.60;99.90;;;;;;4991138;28;20029;-53
2023/02/19 00:08:38;;;;;;;15.55;9.82;;;9.60;99.90;;;;;;4987531;28;20027;-53
2023/02/19 00:11:27;;;;;;;13.45;9.32;;;9.70;99.90;;;;;;4990926;28;20041;-52
2023/02/19 00:14:19;;;;;;;12.30;9.27;;;9.70;99.90;;;;;;4992985;28;20026;-52
2023/02/19 00:17:05;;;;;;;12.85;9.18;;;9.80;99.90;;;;;;4993864;28;20729;-49
2023/02/19 00:19:51;;;;;;;13.18;9.13;;;9.80;99.90;;;;;;4990006;28;20497;-49
2023/02/19 00:22:37;;;;;;;14.45;8.90;;;9.80;99.90;;;;;;4988118;28;20050;-51
2023/02/19 00:25:23;;;;;;;11.13;8.60;;;9.80;99.90;;;;;;4972936;28;20400;-48
2023/02/19 00:28:08;;;;;;;13.60;8.95;;;9.80;99.90;;;;;;4972912;28;20459;-54
2023/02/19 00:30:54;;;;;;;11.65;8.68;;;9.60;99.90;;;;;;4983537;28;20057;-53
2023/02/19 00:33:40;;;;;;;14.60;9.88;;;9.60;99.90;;;;;;4993912;28;20030;-52
2023/02/19 00:36:27;;;;;;;12.07;8.85;;;9.60;99.90;;;;;;4988161;28;20027;-53
2023/02/19 00:39:15;;;;;;;13.00;8.82;;;9.60;99.90;;;;;;4984783;28;20483;-50
2023/02/19 00:42:01;;;;;;;13.57;8.77;;;9.60;99.90;;;;;;4992332;28;20037;-50
2023/02/19 00:44:47;;;;;;;12.32;9.48;;;9.50;99.90;;;;;;4991494;28;20462;-51
2023/02/19 00:47:33;;;;;;;13.75;9.82;;;9.40;99.90;;;;;;4992762;28;20031;-53
2023/02/19 00:50:19;;;;;;;15.55;10.15;;;9.40;99.90;;;;;;4993029;28;20498;-54
2023/02/19 00:53:05;;;;;;;15.35;9.85;;;9.30;99.90;;;;;;5004377;28;20037;-57
2023/02/19 00:55:51;;;;;;;15.35;10.45;;;9.30;99.90;;;;;;4999315;28;20361;-61
2023/02/19 00:58:37;;;;;;;15.23;10.52;;;9.30;99.90;;;;;;4992469;28;20026;-59
2023/02/19 01:01:23;;;;;;;18.02;10.30;;;9.20;99.90;;;;;;4989879;28;20103;-54
2023/02/19 01:04:09;;;;;;;16.67;10.98;;;9.20;99.90;;;;;;4998647;28;20026;-59
2023/02/19 01:06:55;;;;;;;14.27;10.20;;;9.30;99.90;;;;;;4994451;28;20085;-60
2023/02/19 01:09:41;;;;;;;14.10;10.00;;;9.30;99.90;;;;;;4991386;28;20026;-57
2023/02/19 01:12:27;;;;;;;14.10;10.07;;;9.40;99.90;;;;;;4976996;28;20027;-56
2023/02/19 01:15:13;;;;;;;17.65;10.30;;;9.40;99.90;;;;;;4980393;28;20023;-60
2023/02/19 01:17:59;;;;;;;13.82;10.07;;;9.50;99.90;;;;;;4979734;28;20027;-57
2023/02/19 01:20:45;;;;;;;13.00;10.10;;;9.50;99.90;;;;;;4989816;28;20026;-59
2023/02/19 01:23:31;;;;;;;15.05;10.60;;;9.50;99.90;;;;;;4992542;28;20023;-57
2023/02/19 01:26:20;;;;;;;12.90;9.20;;;9.50;99.90;;;;;;4990425;28;20037;-58
2023/02/19 01:29:06;;;;;;;14.88;10.13;;;9.50;99.90;;;;;;4990967;28;20030;-58
2023/02/19 01:31:52;;;;;;;15.73;11.18;;;9.40;99.90;;;;;;4989792;28;20026;-58
2023/02/19 01:34:38;;;;;;;14.57;10.23;;;9.50;99.90;;;;;;4990314;28;20018;-57
2023/02/19 01:37:23;;;;;;;15.57;11.00;;;9.50;99.90;;;;;;4983412;28;20027;-58
2023/02/19 01:40:09;;;;;;;13.75;9.43;;;9.50;99.90;;;;;;4995665;28;20033;-54
2023/02/19 01:42:55;;;;;;;15.07;10.70;;;9.50;99.90;;;;;;4995213;28;20034;-55
2023/02/19 01:45:45;;;;;;;13.05;9.80;;;9.50;99.90;;;;;;4995458;28;20113;-56
2023/02/19 01:48:34;;;;;;;16.58;11.13;;;9.40;99.90;;;;;;4995000;28;20161;-55
2023/02/19 01:51:21;;;;;;;13.55;9.55;;;9.30;99.90;;;;;;4995121;28;20388;-57
2023/02/19 01:54:11;;;;;;;14.80;9.32;;;9.40;99.90;;;;;;4995241;28;20566;-55
2023/02/19 01:56:58;;;;;;;12.38;9.13;;;9.40;99.90;;;;;;4994859;28;20041;-58
2023/02/19 01:59:46;;;;;;;10.73;8.32;;;9.40;99.90;;;;;;4995449;28;20045;-58
2023/02/19 02:02:32;;;;;;;12.90;9.15;;;9.40;99.90;;;;;;4995237;28;20410;-57
2023/02/19 02:05:41;;;;;;;10.38;8.20;;;9.40;99.90;;;;;;4992349;28;20022;-57
2023/02/19 02:11:34;;;;;;;11.48;7.90;;;9.40;99.90;;;;;;4994601;28;20117;-56
2023/02/19 02:14:29;;;;;;;10.02;7.82;;;9.40;99.90;;;;;;4997410;28;20380;-58
2023/02/19 02:17:35;;;;;;;10.68;7.70;;;9.30;99.90;;;;;;4994096;28;20030;-57
2023/02/19 02:20:39;;;;;;;10.30;7.13;;;9.30;99.90;;;;;;4992570;28;20368;-54
2023/02/19 02:23:33;;;;;;;8.80;6.20;;;9.30;99.90;;;;;;4994587;28;20028;-51
2023/02/19 02:26:54;;;;;;;8.52;6.68;;;9.40;99.90;;;;;;4993680;28;20118;-56
2023/02/19 02:30:00;;;;;;;10.75;7.22;;;9.30;99.90;;;;;;4994780;28;20113;-58
2023/02/19 02:32:57;;;;;;;11.48;6.65;;;9.40;99.90;;;;;;4994602;28;20050;-55
2023/02/19 02:36:02;;;;;;;8.98;6.40;;;9.40;99.90;;;;;;4994989;28;20046;-55
2023/02/19 02:38:49;;;;;;;9.30;6.53;;;9.40;99.90;;;;;;4993024;28;20025;-59
2023/02/19 02:41:41;;;;;;;7.60;5.93;;;9.40;99.90;;;;;;4989334;28;20034;-55
2023/02/19 02:44:34;;;;;;;7.70;5.22;;;9.30;99.90;;;;;;4990677;28;20027;-58
2023/02/19 02:50:42;;;;;;;6.43;5.18;;;9.30;99.90;;;;;;4992218;28;20052;-56
2023/02/19 02:56:47;;;;;;;8.50;5.43;;;9.30;99.90;;;;;;4989961;28;20026;-58
2023/02/19 02:59:37;;;;;;;6.40;4.53;;;9.30;99.90;;;;;;4991552;28;20061;-57
2023/02/19 03:02:27;;;;;;;7.82;5.05;;;9.30;99.90;;;;;;4991443;28;20121;-56
2023/02/19 03:08:35;;;;;;;5.55;4.60;;;9.30;99.90;;;;;;4985784;28;20026;-55
2023/02/19 03:21:00;;;;;;;4.30;3.40;;;9.20;99.90;;;;;;4993664;28;20430;-55
2023/02/19 03:26:54;;;;;;;5.78;3.70;;;9.10;99.90;;;;;;4993589;28;20030;-53
2023/02/19 03:29:43;;;;;;;3.75;3.10;;;9.20;99.90;;;;;;4992904;28;20038;-55
2023/02/19 03:32:37;;;;;;;5.22;2.95;;;9.20;99.90;;;;;;4992789;28;20113;-55
2023/02/19 03:35:30;;;;;;;3.00;2.45;;;9.30;99.90;;;;;;4992158;28;20023;-54
2023/02/19 03:38:22;;;;;;;5.25;2.88;;;9.30;99.90;;;;;;4990714;28;20403;-53
2023/02/19 03:41:16;;;;;;;4.72;2.60;;;9.30;99.90;;;;;;4993494;28;20030;-54
2023/02/19 03:44:15;;;;;;;4.78;2.28;;;9.30;99.90;;;;;;4993243;28;20030;-53
2023/02/19 03:47:02;;;;;;;4.93;2.95;;;9.30;99.90;;;;;;4993275;28;20114;-52
2023/02/19 03:49:50;;;;;;;3.50;2.63;;;9.20;99.90;;;;;;4989419;28;20062;-54
2023/02/19 03:52:39;;;;;;;3.67;2.08;;;9.20;99.90;;;;;;4972403;28;20061;-53
2023/02/19 03:55:30;;;;;;;1.95;1.75;;;9.00;99.90;;;;;;4973664;28;20399;-57
2023/02/19 03:58:34;;;;;;;2.65;2.00;;;9.00;99.90;;;;;;4974261;28;20027;-54
2023/02/19 04:01:41;;;;;;;3.17;2.00;;;9.00;99.90;;;;;;4993475;28;20033;-55
2023/02/19 04:04:34;;;;;;;1.88;1.58;;;9.20;99.90;;;;;;4993111;28;20030;-58
2023/02/19 04:07:21;;;;;;;2.20;2.00;;;9.20;99.90;;;;;;4992551;28;20065;-59
2023/02/19 04:10:08;;;;;;;1.63;1.50;;;9.30;99.90;;;;;;4993417;28;20062;-58
2023/02/19 04:13:05;;;;;;;2.88;1.70;;;9.30;99.90;;;;;;4991365;28;20074;-56
2023/02/19 04:15:55;;;;;;;1.48;1.38;;;9.40;99.90;;;;;;4993788;28;20049;-56
2023/02/19 04:18:45;;;;;;;1.60;1.50;;;9.40;99.90;;;;;;4991550;28;20023;-57
2023/02/19 04:21:32;;;;;;;2.20;1.80;;;9.40;99.90;;;;;;4991400;28;20030;-56
2023/02/19 04:24:27;;;;;;;1.83;1.58;;;9.30;99.90;;;;;;4991639;28;20030;-55
2023/02/19 04:27:14;;;;;;;2.30;1.90;;;9.40;99.90;;;;;;4990909;28;20034;-60
2023/02/19 04:30:00;;;;;;;5.15;1.88;;;9.30;99.90;;;;;;4992849;28;20053;-58
2023/02/19 04:32:45;;;;;;;2.35;1.63;;;9.30;99.90;;;;;;4993175;28;20038;-52
2023/02/19 04:35:31;;;;;;;1.92;1.80;;;9.40;99.90;;;;;;4993103;28;20082;-54
2023/02/19 04:38:17;;;;;;;1.83;1.73;;;9.40;99.90;;;;;;4992567;28;20026;-52
2023/02/19 04:41:03;;;;;;;2.08;1.58;;;9.30;99.90;;;;;;4992279;28;20418;-52
2023/02/19 04:43:49;;;;;;;1.98;1.60;;;9.20;99.90;;;;;;4978866;28;20495;-53
2023/02/19 04:46:35;;;;;;;2.00;1.80;;;9.20;99.90;;;;;;4991984;28;20085;-49
2023/02/19 04:49:21;;;;;;;1.50;1.40;;;9.20;99.90;;;;;;4992200;28;20035;-51
2023/02/19 04:52:07;;;;;;;1.83;1.70;;;9.10;99.90;;;;;;4972005;28;20496;-49
2023/02/19 04:54:53;;;;;;;2.40;1.75;;;9.10;99.90;;;;;;4971725;28;20030;-54
2023/02/19 04:57:39;;;;;;;2.05;1.80;;;9.20;99.90;;;;;;4971182;28;20023;-51
2023/02/19 05:00:25;;;;;;;3.50;1.90;;;9.20;99.90;;;;;;4990370;28;20037;-50
2023/02/19 05:03:11;;;;;;;2.33;1.83;;;9.20;99.90;;;;;;4992531;28;20407;-52
2023/02/19 05:05:57;;;;;;;2.50;2.00;;;9.10;99.90;;;;;;4992742;28;20487;-53
2023/02/19 05:08:43;;;;;;;3.25;2.15;;;9.00;99.90;;;;;;4995707;28;20376;-50
2023/02/19 05:11:29;;;;;;;2.70;2.05;;;9.00;99.90;;;;;;4995922;28;20113;-54
2023/02/19 05:14:16;;;;;;;3.40;2.22;;;8.90;99.90;;;;;;4996502;28;20045;-53
2023/02/19 05:17:01;;;;;;;3.75;2.05;;;8.90;99.90;;;;;;4995623;28;20015;-53
2023/02/19 05:19:47;;;;;;;2.65;2.25;;;8.80;99.90;;;;;;4995829;28;20407;-54
2023/02/19 05:22:33;;;;;;;2.45;2.05;;;9.00;99.90;;;;;;4996317;28;20041;-53
2023/02/19 05:25:19;;;;;;;2.90;2.30;;;8.90;99.90;;;;;;4995132;28;20114;-51
2023/02/19 05:28:17;;;;;;;4.05;2.40;;;9.00;99.90;;;;;;4996106;28;20042;-48
2023/02/19 05:31:05;;;;;;;2.72;2.30;;;9.00;99.90;;;;;;4995331;28;20026;-52
2023/02/19 05:33:54;;;;;;;3.38;2.00;;;8.90;99.90;;;;;;4995076;28;20446;-48
2023/02/19 05:36:40;;;;;;;3.20;2.50;;;8.80;99.90;;;;;;4994079;28;20054;-50
2023/02/19 05:39:26;;;;;;;2.85;2.40;;;8.80;99.90;;;;;;4994545;28;20026;-50
2023/02/19 05:42:14;;;;;;;2.97;2.58;;;8.80;99.90;;;;;;4995979;28;20030;-49
2023/02/19 05:45:00;;;;;;;5.45;2.30;;;8.80;99.90;;;;;;4996309;28;20571;-50
2023/02/19 05:47:45;;;;;;;2.90;2.30;;;8.80;99.90;;;;;;4994563;28;20070;-52
2023/02/19 05:50:34;;;;;;;3.17;2.55;;;8.90;99.90;;;;;;4985511;28;20106;-53
2023/02/19 05:53:20;;;;;;;4.00;2.30;;;9.00;99.90;;;;;;4975040;28;20395;-54
2023/02/19 05:56:24;;;;;;;3.13;2.42;;;9.10;99.90;;;;;;4974743;28;20523;-54
2023/02/19 05:59:13;;;;;;;4.13;2.33;;;9.10;99.90;;;;;;4984112;28;20106;-54
2023/02/19 06:01:59;;;;;;;2.90;2.45;;;9.30;99.90;;;;;;4995803;28;20027;-50
2023/02/19 06:04:45;;;;;;;3.05;2.50;;;9.40;99.90;;;;;;4996469;28;20081;-54
2023/02/19 06:07:31;;;;;;;3.85;2.58;;;9.40;99.90;;;;;;4995402;28;20022;-50
2023/02/19 06:10:17;;;;;;;3.72;3.13;;;9.40;99.90;;;;;;4995402;28;20498;-55
2023/02/19 06:13:03;;;;;;;5.68;3.78;;;9.20;99.90;;;;;;4995517;28;20069;-55
2023/02/19 06:15:49;;;;;;;3.97;3.28;;;8.70;99.90;;;;;;4994911;28;20026;-52
2023/02/19 06:18:35;;;;;;;3.55;3.00;;;8.10;99.90;;;;;;4993531;28;20037;-49
2023/02/19 06:21:21;;;;;;;4.25;3.10;;;7.80;99.90;;;;;;4994918;28;20030;-51
2023/02/19 06:24:08;;;;;;;3.92;3.22;;;7.80;99.90;;;;;;4994835;28;20026;-51
2023/02/19 06:26:54;;;;;;;3.75;3.05;;;7.60;99.90;;;;;;4993596;28;20407;-54
2023/02/19 06:29:40;;;;;;;3.40;2.90;;;7.50;99.90;;;;;;4994719;28;20554;-55
2023/02/19 06:32:26;;;;;;;3.50;3.13;;;7.50;99.90;;;;;;4994977;28;20399;-55
2023/02/19 06:35:12;;;;;;;4.70;3.22;;;7.40;99.90;;;;;;4994024;28;20499;-53
2023/02/19 06:37:57;;;;;;;5.28;4.07;;;7.20;99.90;;;;;;4993551;28;20064;-51
2023/02/19 06:40:45;;;;;;;3.10;2.80;;;7.10;99.90;;;;;;4993956;28;20034;-50
2023/02/19 06:43:32;;;;;;;5.28;2.97;;;7.00;99.90;;;;;;4994059;28;20467;-53
2023/02/19 06:46:17;;;;;;;5.55;3.50;;;6.70;99.90;;;;;;4992732;28;20034;-52
2023/02/19 06:49:04;;;;;;;6.10;3.30;;;6.50;99.90;;;;;;4994134;28;20110;-51
2023/02/19 06:51:50;;;;;;;4.47;3.80;;;6.40;99.90;;;;;;4974427;28;20026;-53
2023/02/19 06:54:36;;;;;;;5.55;3.78;;;6.20;99.90;;;;;;4973902;28;20027;-53
2023/02/19 06:57:22;;;;;;;5.05;3.95;;;6.10;99.90;;;;;;4974475;28;20023;-53
2023/02/19 07:00:09;;;;;;;5.88;4.22;;;6.20;99.90;;;;;;4992631;28;20114;-51
2023/02/19 07:02:55;;;;;;;5.57;4.28;;;6.10;99.90;;;;;;4995365;28;20027;-48
2023/02/19 07:05:42;;;;;;;6.78;4.60;;;6.00;99.90;;;;;;4993292;28;20026;-54
2023/02/19 07:08:29;;;;;;;6.32;4.50;;;6.00;99.90;;;;;;4995132;28;20368;-55
2023/02/19 07:11:15;;;;;;;6.25;4.00;;;6.10;99.90;;;;;;4993501;28;20030;-50
2023/02/19 07:14:03;;;;;;;5.90;4.28;;;6.10;99.90;;;;;;4993796;28;20038;-51
2023/02/19 07:16:50;;;;;;;8.27;4.50;;;6.20;99.90;;;;;;4993471;28;20372;-49
2023/02/19 07:19:35;;;;;;;6.32;4.20;;;6.00;99.90;;;;;;4993716;28;20034;-50
2023/02/19 07:22:21;;;;;;;7.68;4.25;;;6.20;99.90;;;;;;4994490;28;20085;-52
2023/02/19 07:25:07;;;;;;;7.35;4.65;;;6.10;99.90;;;;;;4993080;28;20503;-50
2023/02/19 07:27:53;;;;;;;8.38;5.32;;;6.10;99.90;;;;;;4993697;28;20035;-52
2023/02/19 07:30:39;;;;;;;6.45;5.03;;;6.10;99.90;;;;;;4993427;28;20038;-51
2023/02/19 07:33:25;;;;;;;7.47;4.95;;;6.20;99.90;;;;;;4993442;28;20122;-48
2023/02/19 07:36:13;;;;;;;7.07;5.60;;;6.20;99.90;;;;;;4993294;28;20081;-51
2023/02/19 07:38:59;;;;;;;8.45;5.30;;;6.10;99.90;;;;;;4991366;28;20053;-51
2023/02/19 07:41:45;;;;;;;6.05;4.78;;;6.10;99.90;;;;;;4993895;28;20061;-52
2023/02/19 07:44:31;;;;;;;7.47;5.28;;;6.20;99.90;;;;;;4973579;28;20038;-51
2023/02/19 07:47:17;;;;;;;7.68;4.82;;;6.00;99.90;;;;;;4973017;28;20037;-49
2023/02/19 07:50:03;;;;;;;7.32;4.85;;;5.90;99.90;;;;;;4981188;28;20491;-52
2023/02/19 07:52:49;;;;;;;7.80;4.50;;;5.90;99.90;;;;;;4992714;28;20410;-51
2023/02/19 07:55:35;;;;;;;6.28;3.65;;;6.00;99.90;;;;;;4993529;28;20033;-50
2023/02/19 07:58:21;;;;;;;6.93;3.35;;;5.80;99.90;;;;;;4992851;28;20030;-51
2023/02/19 08:01:09;;;;;;;5.38;3.28;;;5.80;99.90;;;;;;4992793;28;20039;-48
2023/02/19 08:03:56;;;;;;;5.38;3.20;;;5.60;99.90;;;;;;4992791;28;20109;-52
2023/02/19 08:06:42;;;;;;;5.10;2.83;;;5.50;99.90;;;;;;4992530;28;20191;-49
2023/02/19 08:09:28;;;;;;;4.30;2.60;;;5.40;99.90;;;;;;4991387;28;20073;-48
2023/02/19 08:15:19;;;;;;;4.72;2.63;;;5.10;99.90;;;;;;4992459;28;20510;-49
2023/02/19 08:18:05;;;;;;;4.72;2.65;;;5.00;99.90;;;;;;4991160;28;20081;-50
2023/02/19 08:20:52;;;;;;;4.60;2.97;;;4.90;99.90;;;;;;4992772;28;20026;-50
2023/02/19 08:23:39;;;;;;;4.32;2.60;;;5.00;99.90;;;;;;4992204;28;20019;-49
2023/02/19 08:26:25;;;;;;;5.63;2.45;;;5.10;99.90;;;;;;4976506;28;20038;-48
2023/02/19 08:29:11;;;;;;;5.50;2.63;;;5.20;99.90;;;;;;4992523;28;20058;-48
2023/02/19 08:31:56;;;;;;;4.35;2.40;;;5.10;99.90;;;;;;4991446;28;20037;-48
2023/02/19 08:34:42;;;;;;;3.33;2.45;;;5.20;99.90;;;;;;4992515;28;20027;-48
2023/02/19 08:37:28;;;;;;;4.40;2.53;;;5.20;99.90;;;;;;4991791;28;20026;-51
2023/02/19 08:40:14;;;;;;;4.43;2.10;;;5.20;99.90;;;;;;4992312;28;20169;-51
2023/02/19 08:45:37;;;;;;;6.32;2.47;;;5.10;99.90;;;;;;5059225;22;20046;-48
2023/02/19 08:48:23;;;;;;;3.90;2.30;;;5.10;99.90;;;;;;5011867;28;20026;-50
2023/02/19 08:51:10;;;;;;;6.47;2.60;;;5.00;99.90;;;;;;5017741;28;20033;-50
2023/02/19 08:53:56;;;;;;;5.28;2.60;;;5.10;99.90;;;;;;5015385;28;20878;-52
2023/02/19 08:56:42;;;;;;;7.20;2.67;;;5.10;99.90;;;;;;5018854;28;20490;-50
2023/02/19 08:59:28;;;;;;;4.22;2.67;;;5.20;99.90;;;;;;5014958;28;20033;-50
2023/02/19 09:02:14;;;;;;;4.95;2.60;;;5.20;99.90;;;;;;5000674;28;20033;-54
2023/02/19 09:07:33;;;;;;;4.63;2.35;;;5.30;99.90;;;;;;4923392;29;20036;-53
2023/02/19 09:10:19;;;;;;;2.83;2.03;;;5.20;99.90;;;;;;4923110;29;20033;-52
2023/02/19 09:13:05;;;;;;;3.28;2.30;;;5.20;99.90;;;;;;4917757;29;20063;-52
2023/02/19 09:15:51;;;;;;;4.85;2.63;;;5.00;99.90;;;;;;4920602;29;20038;-54
2023/02/19 09:18:38;;;;;;;7.93;2.90;;;5.10;99.90;;;;;;4927413;29;20031;-50
2023/02/19 09:21:24;;;;;;;4.53;2.40;;;5.00;99.90;;;;;;4932879;29;20407;-51
2023/02/19 09:24:10;;;;;;;4.35;2.70;;;5.20;99.90;;;;;;4934235;29;20034;-54
2023/02/19 09:26:56;;;;;;;5.05;3.20;;;5.30;99.90;;;;;;4933979;29;20023;-52
2023/02/19 09:29:42;;;;;;;4.10;2.95;;;5.40;99.90;;;;;;4932933;29;20028;-51
2023/02/19 09:32:31;;;;;;;3.25;2.60;;;5.60;99.90;;;;;;4931966;29;20036;-49
2023/02/19 09:35:17;;;;;;;3.60;2.40;;;5.70;99.90;;;;;;4933920;29;20430;-50
2023/02/19 09:38:03;;;;;;;5.90;2.97;;;5.70;99.90;;;;;;4926800;29;20371;-50
2023/02/19 09:40:49;;;;;;;4.50;2.60;;;5.60;99.90;;;;;;4915737;29;20508;-48
2023/02/19 09:43:36;;;;;;;3.55;2.78;;;5.80;99.90;;;;;;4914847;29;20032;-49
2023/02/19 09:46:33;;;;;;;4.53;2.67;;;5.90;99.90;;;;;;4914656;29;20520;-49
2023/02/19 09:49:25;;;;;;;3.90;3.20;;;5.90;99.90;;;;;;4914975;29;20060;-53
2023/02/19 09:52:34;;;;;;;3.97;2.88;;;6.00;99.90;;;;;;4914565;29;20028;-55
2023/02/19 09:55:35;;;;;;;3.63;2.58;;;6.10;99.90;;;;;;4917942;29;20099;-49
2023/02/19 09:58:29;;;;;;;2.83;2.25;;;6.00;99.90;;;;;;4916848;29;20036;-51
2023/02/19 10:01:16;;;;;;;4.25;2.30;;;6.10;99.90;;;;;;4917907;29;20033;-50
2023/02/19 10:04:03;;;;;;;3.83;2.53;;;6.20;99.90;;;;;;4904436;29;20525;-54
2023/02/19 10:06:50;;;;;;;3.50;2.20;;;6.30;99.90;;;;;;4904748;29;20055;-48
2023/02/19 10:09:37;;;;;;;2.15;1.85;;;6.00;99.90;;;;;;4918536;29;20413;-49
2023/02/19 10:12:28;;;;;;;4.85;2.30;;;6.10;99.90;;;;;;4902855;29;20627;-52
2023/02/19 10:15:32;;;;;;;4.40;3.42;;;6.40;99.90;;;;;;4926550;29;20020;-52
2023/02/19 10:18:22;;;;;;;5.75;3.40;;;6.30;99.90;;;;;;4917349;29;20028;-49
2023/02/19 10:21:18;;;;;;;4.00;3.30;;;6.10;99.90;;;;;;4916428;29;20493;-49
2023/02/19 10:24:06;;;;;;;4.10;3.30;;;6.10;99.90;;;;;;4916266;29;20044;-49
2023/02/19 10:26:52;;;;;;;5.90;3.55;;;6.00;99.90;;;;;;4916703;29;20083;-50
2023/02/19 10:29:38;;;;;;;6.13;3.50;;;6.10;99.90;;;;;;4913780;29;20040;-49
2023/02/19 10:32:26;;;;;;;6.57;3.28;;;6.20;99.90;;;;;;4914418;29;20039;-56
2023/02/19 10:35:14;;;;;;;6.10;2.78;;;6.20;99.90;;;;;;4924472;29;20428;-48
2023/02/19 10:38:00;;;;;;;6.00;2.90;;;6.20;99.90;;;;;;4923796;29;20043;-53
2023/02/19 10:40:47;;;;;;;3.95;2.53;;;6.30;99.90;;;;;;4931961;29;20042;-48
2023/02/19 10:43:41;;;;;;;5.30;3.25;;;6.40;99.90;;;;;;4936846;29;20552;-49
2023/02/19 10:46:31;;;;;;;5.13;2.70;;;6.40;99.90;;;;;;4922331;29;20460;-50
2023/02/19 10:49:31;;;;;;;5.78;2.88;;;6.50;99.90;;;;;;4917980;29;20394;-49
2023/02/19 10:52:34;;;;;;;7.38;2.50;;;6.50;99.90;;;;;;4917155;29;20107;-50
2023/02/19 10:55:32;;;;;;;5.95;2.60;;;6.60;99.90;;;;;;4917894;29;20107;-55
2023/02/19 10:58:29;;;;;;;8.75;2.45;;;6.60;99.90;;;;;;4916156;29;20028;-54
2023/02/19 11:01:19;;;;;;;4.78;2.78;;;6.50;99.90;;;;;;4913120;29;20458;-51
2023/02/19 11:04:16;;;;;;;4.40;2.45;;;6.50;99.90;;;;;;4917511;29;20032;-52
2023/02/19 11:07:11;;;;;;;4.07;2.60;;;6.50;99.90;;;;;;4930710;29;20489;-53
2023/02/19 11:09:58;;;;;;;6.07;2.50;;;6.60;99.90;;;;;;4935885;29;20162;-50
2023/02/19 11:12:47;;;;;;;5.75;2.60;;;6.60;99.90;;;;;;4936415;29;20039;-54
2023/02/19 11:15:36;;;;;;;5.38;2.55;;;6.70;99.90;;;;;;4935612;29;20481;-54
2023/02/19 11:18:28;;;;;;;4.85;2.97;;;6.70;99.90;;;;;;4934369;29;20028;-52
2023/02/19 11:21:24;;;;;;;9.57;3.15;;;6.80;99.90;;;;;;4926341;29;20378;-50
2023/02/19 11:24:35;;;;;;;5.70;2.42;;;7.00;99.90;;;;;;4918163;29;20032;-53
2023/02/19 11:27:23;;;;;;;9.40;3.10;;;7.00;99.90;;;;;;4917031;29;20036;-52
2023/02/19 11:30:40;;;;;;;8.45;2.70;;;7.30;99.90;;;;;;4933715;29;20043;-48
2023/02/19 11:33:27;;;;;;;5.40;2.88;;;7.00;99.90;;;;;;4929132;29;20081;-49
2023/02/19 11:36:31;;;;;;;6.32;2.25;;;6.80;99.90;;;;;;4917946;29;20029;-50
2023/02/19 11:39:17;;;;;;;6.65;2.40;;;6.90;99.90;;;;;;4924389;29;20108;-49
2023/02/19 11:42:37;;;;;;;14.30;2.92;;;6.90;99.90;;;;;;4915958;29;20032;-54
2023/02/19 11:45:44;;;;;;;5.80;2.53;;;7.10;99.90;;;;;;4913135;29;20055;-48
2023/02/19 11:48:42;;;;;;;6.95;2.30;;;7.10;99.90;;;;;;4924737;29;20027;-51
2023/02/19 11:51:40;;;;;;;8.85;3.08;;;7.10;99.90;;;;;;4913853;29;20033;-49
2023/02/19 11:54:49;;;;;;;9.48;2.85;;;7.10;99.90;;;;;;4915389;29;20028;-52
2023/02/19 11:57:41;;;;;;;6.82;2.78;;;7.50;99.90;;;;;;4905978;29;20024;-48
2023/02/19 12:00:29;;;;;;;5.45;2.78;;;7.70;99.90;;;;;;4914892;29;20031;-52
2023/02/19 12:03:21;;;;;;;9.52;3.15;;;7.70;99.90;;;;;;4924501;29;20039;-52
2023/02/19 12:06:37;;;;;;;9.07;2.88;;;7.60;99.90;;;;;;4928519;29;20130;-52
2023/02/19 12:09:32;;;;;;;6.33;2.97;;;7.70;99.90;;;;;;4907023;29;20044;-52
2023/02/19 12:12:37;;;;;;;10.95;2.63;;;7.60;99.90;;;;;;4924199;29;20035;-48
2023/02/19 12:15:29;;;;;;;9.30;2.47;;;7.40;99.90;;;;;;4924056;29;20465;-49
2023/02/19 12:18:39;;;;;;;9.23;2.47;;;7.40;99.90;;;;;;4917953;29;20028;-50
2023/02/19 12:21:37;;;;;;;4.70;2.03;;;7.30;99.90;;;;;;4916755;29;20020;-49
2023/02/19 12:24:42;;;;;;;6.00;3.20;;;7.30;99.90;;;;;;4899557;29;20035;-54
2023/02/19 12:27:54;;;;;;;4.57;2.42;;;7.30;99.90;;;;;;4921918;29;20027;-52
2023/02/19 12:30:48;;;;;;;4.13;2.10;;;7.40;99.90;;;;;;4906641;29;20099;-54
2023/02/19 12:33:43;;;;;;;7.50;2.43;;;7.30;99.90;;;;;;4922864;29;20059;-48
2023/02/19 12:36:53;;;;;;;5.55;2.45;;;7.60;99.90;;;;;;4923140;29;20028;-51
2023/02/19 12:40:15;;;;;;;6.85;2.78;;;7.70;99.90;;;;;;4918760;29;20033;-51
2023/02/19 12:43:21;;;;;;;6.15;2.53;;;7.90;99.90;;;;;;4900454;29;20036;-52
2023/02/19 12:46:11;;;;;;;;;;;8.00;99.30;;;;;;4923137;29;20526;-49
2023/02/19 12:49:09;;;;;;;5.78;2.15;;;7.70;99.40;;;;;;4931804;29;19907;-49
2023/02/19 12:52:00;;;;;;;4.78;1.70;;;7.40;99.90;;;;;;4915030;29;20035;-50
2023/02/19 12:54:52;;;;;;;6.95;2.42;;;7.60;99.90;;;;;;4916556;29;20028;-49
2023/02/19 12:57:38;;;;;;;5.25;1.95;;;7.80;99.90;;;;;;4922634;29;20037;-51
2023/02/19 13:00:34;;;;;;;6.22;1.98;;;7.70;99.90;;;;;;4920861;29;20421;-52
2023/02/19 13:03:36;;;;;;;5.25;2.00;;;7.70;99.90;;;;;;4921302;29;20398;-48
2023/02/19 13:06:34;;;;;;;6.45;2.30;;;8.00;99.90;;;;;;4926008;29;20094;-48
2023/02/19 13:09:50;;;;;;;3.50;2.55;;;8.00;99.70;;;;;;4933036;29;20020;-50
2023/02/19 13:12:42;;;;;;;6.10;2.10;;;7.70;99.90;;;;;;4924871;29;20544;-48
2023/02/19 13:15:49;;;;;;;5.03;2.45;;;7.90;99.90;;;;;;4925118;29;20040;-48
2023/02/19 13:18:40;;;;;;;4.00;2.20;;;8.40;99.80;;;;;;4919622;29;20040;-52
2023/02/19 13:24:41;;;;;;;5.88;2.42;;;8.30;99.40;;;;;;4933972;29;20521;-51
2023/02/19 13:27:42;;;;;;;7.25;2.53;;;8.20;99.30;;;;;;4914668;29;20678;-49
2023/02/19 13:30:45;;;;;;;3.78;2.38;;;8.00;99.30;;;;;;4921421;29;20027;-46
2023/02/19 13:34:01;;;;;;;6.50;2.70;;;8.10;99.90;;;;;;4920949;29;20520;-51
2023/02/19 13:36:48;;;;;;;7.68;3.20;;;8.40;99.00;;;;;;4918143;29;20032;-48
2023/02/19 13:39:34;;;;;;;6.00;2.78;;;8.40;99.00;;;;;;4920322;29;20071;-50
2023/02/19 13:42:31;;;;;;;6.63;2.85;;;8.30;99.40;;;;;;4924622;29;20040;-51
2023/02/19 13:45:24;;;;;;;6.10;2.85;;;8.40;99.90;;;;;;4929207;29;20036;-52
2023/02/19 13:48:30;;;;;;;3.72;2.40;;;8.30;99.70;;;;;;4929060;29;20028;-50
2023/02/19 13:51:17;;;;;;;6.30;2.67;;;8.30;99.90;;;;;;4938455;29;20055;-51
2023/02/19 13:54:18;;;;;;;8.40;3.53;;;8.30;99.90;;;;;;4937607;29;20115;-48
2023/02/19 13:57:23;;;;;;;8.88;2.45;;;8.60;99.20;;;;;;4930685;29;20040;-53
2023/02/19 14:00:48;;;;;;;5.72;2.30;;;8.90;98.50;;;;;;4924440;29;20032;-53
2023/02/19 14:04:07;;;;;;;5.82;1.88;;;8.90;98.90;;;;;;4914807;29;20039;-50
2023/02/19 14:07:01;;;;;;;6.35;2.50;;;9.10;98.50;;;;;;4932831;29;20090;-51
2023/02/19 14:09:47;;;;;;;4.85;2.05;;;9.20;98.00;;;;;;4928367;29;20032;-48
2023/02/19 14:12:35;;;;;;;5.18;2.60;;;9.30;97.30;;;;;;4930295;29;20046;-48
2023/02/19 14:15:30;;;;;;;5.50;2.30;;;9.30;97.60;;;;;;4932408;29;20378;-48
2023/02/19 14:18:44;;;;;;;4.47;2.55;;;9.40;97.00;;;;;;4930733;29;20452;-51
2023/02/19 14:21:36;;;;;;;4.38;2.85;;;9.50;97.30;;;;;;4924099;29;20035;-49
2023/02/19 14:24:24;;;;;;;6.05;2.08;;;9.40;97.40;;;;;;4922916;29;20123;-53
2023/02/19 14:27:10;;;;;;;4.03;2.30;;;9.30;97.40;;;;;;4924047;29;20117;-51
2023/02/19 14:29:57;;;;;;;3.70;2.20;;;9.00;97.20;;;;;;4916829;29;20127;-51
2023/02/19 14:32:43;;;;;;;7.30;2.40;;;8.80;97.60;;;;;;4923715;29;20035;-51
2023/02/19 14:35:38;;;;;;;7.10;2.40;;;8.40;98.50;;;;;;4918081;29;20060;-49
2023/02/19 14:38:41;;;;;;;5.32;2.40;;;8.70;98.20;;;;;;4919091;29;20048;-50
2023/02/19 14:41:31;;;;;;;3.60;2.30;;;8.90;97.50;;;;;;4932027;29;20032;-49
2023/02/19 14:44:23;;;;;;;2.63;2.00;;;9.10;96.80;;;;;;4920764;29;20103;-48
2023/02/19 14:47:15;;;;;;;6.68;2.60;;;9.40;96.10;;;;;;4915315;29;20043;-54
2023/02/19 14:50:27;;;;;;;5.43;2.10;;;9.40;96.10;;;;;;4914008;29;20039;-51
2023/02/19 14:53:15;;;;;;;3.75;2.13;;;9.50;96.20;;;;;;4920120;29;20044;-50
2023/02/19 14:56:03;;;;;;;5.25;2.10;;;9.40;95.70;;;;;;4912195;29;20024;-50
2023/02/19 14:59:14;;;;;;;5.22;2.65;;;9.70;94.70;;;;;;4912596;29;20039;-53
2023/02/19 15:02:12;;;;;;;6.25;2.10;;;10.10;93.70;;;;;;4915702;29;20127;-51
2023/02/19 15:04:57;;;;;;;4.50;2.75;;;10.10;96.00;;;;;;4912499;29;20055;-52
2023/02/19 15:07:44;;;;;;;4.53;2.28;;;10.80;94.60;;;;;;4915773;29;20062;-52
2023/02/19 15:10:32;;;;;;;7.10;2.40;;;10.80;94.40;;;;;;4914277;29;20039;-51
2023/02/19 15:13:25;;;;;;;4.05;2.42;;;10.50;94.10;;;;;;4925956;29;20040;-50
2023/02/19 15:16:22;;;;;;;6.10;2.55;;;10.30;93.90;;;;;;4918904;29;20497;-53
2023/02/19 15:19:11;;;;;;;7.88;2.67;;;9.90;95.50;;;;;;4920659;29;20043;-53
2023/02/19 15:21:57;;;;;;;3.00;2.20;;;9.50;95.40;;;;;;4912824;29;20028;-53
2023/02/19 15:24:44;;;;;;;5.07;2.28;;;9.00;96.00;;;;;;4911837;29;20052;-51
2023/02/19 15:27:31;;;;;;;4.35;2.40;;;9.00;96.30;;;;;;4912790;29;20040;-50
2023/02/19 15:30:23;;;;;;;4.63;2.53;;;8.90;97.40;;;;;;4917905;29;20092;-52
2023/02/19 15:33:27;;;;;;;6.95;2.30;;;8.80;96.90;;;;;;4917589;29;20095;-54
2023/02/19 15:36:18;;;;;;;5.82;2.67;;;8.60;97.00;;;;;;4927847;29;20082;-47